sensor_id;sensor_type;location;lat;lon;timestamp;temperature;humidity
9730;DHT22;4904;49.152;11.004;2023-12-20T00:01:07;5.60;99.90
9730;DHT22;4904;49.152;11.004;2023-12-20T00:03:34;5.60;99.90
9730;DHT22;4904;49.152;11.004;2023-12-20T00:06:01;5.60;99.90
9730;DHT22;4904;49.152;11.004;2023-12-20T00:08:28;5.70;99.90
9730;DHT22;4904;49.152;11.004;2023-12-20T00:10:55;5.70;99.90
9730;DHT22;4904;49.152;11.004;2023-12-20T00:13:22;5.70;99.90
9730;DHT22;4904;49.152;11.004;2023-12-20T00:15:50;5.70;99.90
9730;DHT22;4904;49.152;11.004;2023-12-20T00:18:17;5.70;99.90
9730;DHT22;4904;49.152;11.004;2023-12-20T00:20:44;5.70;99.90
9730;DHT22;4904;49.152;11.004;2023-12-20T00:23:11;5.60;99.90
9730;DHT22;4904;49.152;11.004;2023-12-20T00:25:38;5.60;99.90
9730;DHT22;4904;49.152;11.004;2023-12-20T00:28:05;5.70;99.90
9730;DHT22;4904;49.152;11.004;2023-12-20T00:30:32;5.60;99.90
9730;DHT22;4904;49.152;11.004;2023-12-20T00:33:01;5.60;99.90
9730;DHT22;4904;49.152;11.004;2023-12-20T00:35:28;5.60;99.90
9730;DHT22;4904;49.152;11.004;2023-12-20T00:37:55;5.60;99.90
9730;DHT22;4904;49.152;11.004;2023-12-20T00:40:22;5.60;99.90
9730;DHT22;4904;49.152;11.004;2023-12-20T00:42:48;5.60;99.90
9730;DHT22;4904;49.152;11.004;2023-12-20T00:45:15;5.60;99.90
9730;DHT22;4904;49.152;11.004;2023-12-20T00:47:42;5.60;99.90
9730;DHT22;4904;49.152;11.004;2023-12-20T00:50:10;5.50;99.90
9730;DHT22;4904;49.152;11.004;2023-12-20T00:52:37;5.60;99.90
9730;DHT22;4904;49.152;11.004;2023-12-20T00:55:05;5.60;99.90
9730;DHT22;4904;49.152;11.004;2023-12-20T00:57:32;5.50;99.90
9730;DHT22;4904;49.152;11.004;2023-12-20T00:59:59;5.50;99.90
9730;DHT22;4904;49.152;11.004;2023-12-20T01:02:25;5.70;99.90
9730;DHT22;4904;49.152;11.004;2023-12-20T01:04:52;5.50;99.90
9730;DHT22;4904;49.152;11.004;2023-12-20T01:07:20;5.50;99.90
9730;DHT22;4904;49.152;11.004;2023-12-20T01:09:47;5.50;99.90
9730;DHT22;4904;49.152;11.004;2023-12-20T01:12:15;5.50;99.90
9730;DHT22;4904;49.152;11.004;2023-12-20T01:14:42;5.50;99.90
9730;DHT22;4904;49.152;11.004;2023-12-20T01:17:08;5.50;99.90
9730;DHT22;4904;49.152;11.004;2023-12-20T01:19:35;5.50;99.90
9730;DHT22;4904;49.152;11.004;2023-12-20T01:22:02;5.50;99.90
9730;DHT22;4904;49.152;11.004;2023-12-20T01:24:30;5.50;99.90
9730;DHT22;4904;49.152;11.004;2023-12-20T01:26:58;5.40;99.90
9730;DHT22;4904;49.152;11.004;2023-12-20T01:29:25;5.40;99.90
9730;DHT22;4904;49.152;11.004;2023-12-20T01:31:52;5.40;99.90
9730;DHT22;4904;49.152;11.004;2023-12-20T01:34:18;5.50;99.90
9730;DHT22;4904;49.152;11.004;2023-12-20T01:36:45;5.30;99.90
9730;DHT22;4904;49.152;11.004;2023-12-20T01:39:12;5.40;99.90
9730;DHT22;4904;49.152;11.004;2023-12-20T01:41:40;5.40;99.90
9730;DHT22;4904;49.152;11.004;2023-12-20T01:44:07;5.40;99.90
9730;DHT22;4904;49.152;11.004;2023-12-20T01:46:34;5.40;99.90
9730;DHT22;4904;49.152;11.004;2023-12-20T01:49:01;5.40;99.90
9730;DHT22;4904;49.152;11.004;2023-12-20T01:51:28;5.40;99.90
9730;DHT22;4904;49.152;11.004;2023-12-20T01:53:57;5.30;99.90
9730;DHT22;4904;49.152;11.004;2023-12-20T01:56:24;5.20;99.90
9730;DHT22;4904;49.152;11.004;2023-12-20T01:58:53;5.30;99.90
9730;DHT22;4904;49.152;11.004;2023-12-20T02:01:21;5.30;99.90
9730;DHT22;4904;49.152;11.004;2023-12-20T02:03:48;5.30;99.90
9730;DHT22;4904;49.152;11.004;2023-12-20T02:06:16;5.30;99.90
9730;DHT22;4904;49.152;11.004;2023-12-20T02:08:43;5.40;99.90
9730;DHT22;4904;49.152;11.004;2023-12-20T02:11:10;5.30;99.90
9730;DHT22;4904;49.152;11.004;2023-12-20T02:13:37;5.20;99.90
9730;DHT22;4904;49.152;11.004;2023-12-20T02:16:06;5.30;99.90
9730;DHT22;4904;49.152;11.004;2023-12-20T02:18:33;5.10;99.90
9730;DHT22;4904;49.152;11.004;2023-12-20T02:21:00;5.20;99.90
9730;DHT22;4904;49.152;11.004;2023-12-20T02:23:28;5.20;99.90
9730;DHT22;4904;49.152;11.004;2023-12-20T02:25:55;5.20;99.90
9730;DHT22;4904;49.152;11.004;2023-12-20T02:28:22;5.20;99.90
9730;DHT22;4904;49.152;11.004;2023-12-20T02:30:49;5.20;99.90
9730;DHT22;4904;49.152;11.004;2023-12-20T02:33:16;5.20;99.90
9730;DHT22;4904;49.152;11.004;2023-12-20T02:35:43;5.10;99.90
9730;DHT22;4904;49.152;11.004;2023-12-20T02:38:10;5.20;99.90
9730;DHT22;4904;49.152;11.004;2023-12-20T02:40:38;5.10;99.90
9730;DHT22;4904;49.152;11.004;2023-12-20T02:43:05;5.20;99.90
9730;DHT22;4904;49.152;11.004;2023-12-20T02:45:32;5.10;99.90
9730;DHT22;4904;49.152;11.004;2023-12-20T02:47:59;5.00;99.90
9730;DHT22;4904;49.152;11.004;2023-12-20T02:50:25;4.90;99.90
9730;DHT22;4904;49.152;11.004;2023-12-20T02:52:52;5.10;99.90
9730;DHT22;4904;49.152;11.004;2023-12-20T02:55:19;5.10;99.90
9730;DHT22;4904;49.152;11.004;2023-12-20T02:57:47;5.10;99.90
9730;DHT22;4904;49.152;11.004;2023-12-20T03:00:14;5.00;99.90
9730;DHT22;4904;49.152;11.004;2023-12-20T03:02:41;5.10;99.90
9730;DHT22;4904;49.152;11.004;2023-12-20T03:05:08;5.20;99.90
9730;DHT22;4904;49.152;11.004;2023-12-20T03:07:36;5.20;99.90
9730;DHT22;4904;49.152;11.004;2023-12-20T03:10:04;5.20;99.90
9730;DHT22;4904;49.152;11.004;2023-12-20T03:12:31;5.20;99.90
9730;DHT22;4904;49.152;11.004;2023-12-20T03:14:59;5.20;99.90
9730;DHT22;4904;49.152;11.004;2023-12-20T03:17:26;5.10;99.90
9730;DHT22;4904;49.152;11.004;2023-12-20T03:19:53;5.00;99.90
9730;DHT22;4904;49.152;11.004;2023-12-20T03:22:20;5.00;99.90
9730;DHT22;4904;49.152;11.004;2023-12-20T03:24:47;5.00;99.90
9730;DHT22;4904;49.152;11.004;2023-12-20T03:27:14;5.00;99.90
9730;DHT22;4904;49.152;11.004;2023-12-20T03:29:40;5.00;99.90
9730;DHT22;4904;49.152;11.004;2023-12-20T03:32:10;4.90;99.90
9730;DHT22;4904;49.152;11.004;2023-12-20T03:34:37;5.00;99.90
9730;DHT22;4904;49.152;11.004;2023-12-20T03:37:03;5.00;99.90
9730;DHT22;4904;49.152;11.004;2023-12-20T03:39:31;5.00;99.90
9730;DHT22;4904;49.152;11.004;2023-12-20T03:41:58;5.00;99.90
9730;DHT22;4904;49.152;11.004;2023-12-20T03:44:24;5.00;99.90
9730;DHT22;4904;49.152;11.004;2023-12-20T03:46:51;5.00;99.90
9730;DHT22;4904;49.152;11.004;2023-12-20T03:49:19;5.00;99.90
9730;DHT22;4904;49.152;11.004;2023-12-20T03:51:46;5.10;99.90
9730;DHT22;4904;49.152;11.004;2023-12-20T03:54:13;5.10;99.90
9730;DHT22;4904;49.152;11.004;2023-12-20T03:56:40;5.00;99.90
9730;DHT22;4904;49.152;11.004;2023-12-20T03:59:07;5.10;99.90
9730;DHT22;4904;49.152;11.004;2023-12-20T04:01:34;5.10;99.90
9730;DHT22;4904;49.152;11.004;2023-12-20T04:04:01;5.10;99.90
9730;DHT22;4904;49.152;11.004;2023-12-20T04:06:29;5.00;99.90
9730;DHT22;4904;49.152;11.004;2023-12-20T04:08:56;5.00;99.90
9730;DHT22;4904;49.152;11.004;2023-12-20T04:11:24;5.00;99.90
9730;DHT22;4904;49.152;11.004;2023-12-20T04:13:50;5.00;99.90
9730;DHT22;4904;49.152;11.004;2023-12-20T04:16:17;4.90;99.90
9730;DHT22;4904;49.152;11.004;2023-12-20T04:18:44;4.90;99.90
9730;DHT22;4904;49.152;11.004;2023-12-20T04:21:10;4.90;99.90
9730;DHT22;4904;49.152;11.004;2023-12-20T04:23:39;4.80;99.90
9730;DHT22;4904;49.152;11.004;2023-12-20T04:26:05;4.80;99.90
9730;DHT22;4904;49.152;11.004;2023-12-20T04:28:33;4.80;99.90
9730;DHT22;4904;49.152;11.004;2023-12-20T04:30:59;4.80;99.90
9730;DHT22;4904;49.152;11.004;2023-12-20T04:33:26;4.80;99.90
9730;DHT22;4904;49.152;11.004;2023-12-20T04:35:53;4.80;99.90
9730;DHT22;4904;49.152;11.004;2023-12-20T04:38:20;4.80;99.90
9730;DHT22;4904;49.152;11.004;2023-12-20T04:40:48;4.80;99.90
9730;DHT22;4904;49.152;11.004;2023-12-20T04:43:15;4.70;99.90
9730;DHT22;4904;49.152;11.004;2023-12-20T04:45:42;4.70;99.90
9730;DHT22;4904;49.152;11.004;2023-12-20T04:48:09;4.70;99.90
9730;DHT22;4904;49.152;11.004;2023-12-20T04:50:35;4.70;99.90
9730;DHT22;4904;49.152;11.004;2023-12-20T04:53:02;4.70;99.90
9730;DHT22;4904;49.152;11.004;2023-12-20T04:55:30;4.70;99.90
9730;DHT22;4904;49.152;11.004;2023-12-20T04:57:58;4.70;99.90
9730;DHT22;4904;49.152;11.004;2023-12-20T05:00:26;4.70;99.90
9730;DHT22;4904;49.152;11.004;2023-12-20T05:02:52;4.70;99.90
9730;DHT22;4904;49.152;11.004;2023-12-20T05:05:20;4.70;99.90
9730;DHT22;4904;49.152;11.004;2023-12-20T05:07:47;4.70;99.90
9730;DHT22;4904;49.152;11.004;2023-12-20T05:10:14;4.70;99.90
9730;DHT22;4904;49.152;11.004;2023-12-20T05:12:40;4.70;99.90
9730;DHT22;4904;49.152;11.004;2023-12-20T05:15:09;4.70;99.90
9730;DHT22;4904;49.152;11.004;2023-12-20T05:17:36;4.80;99.90
9730;DHT22;4904;49.152;11.004;2023-12-20T05:20:04;4.60;99.90
9730;DHT22;4904;49.152;11.004;2023-12-20T05:22:31;4.60;99.90
9730;DHT22;4904;49.152;11.004;2023-12-20T05:24:58;4.60;99.90
9730;DHT22;4904;49.152;11.004;2023-12-20T05:27:26;4.60;99.90
9730;DHT22;4904;49.152;11.004;2023-12-20T05:29:53;4.60;99.90
9730;DHT22;4904;49.152;11.004;2023-12-20T05:32:24;4.50;99.90
9730;DHT22;4904;49.152;11.004;2023-12-20T05:34:51;4.40;99.90
9730;DHT22;4904;49.152;11.004;2023-12-20T05:37:18;4.40;99.90
9730;DHT22;4904;49.152;11.004;2023-12-20T05:39:45;4.40;99.90
9730;DHT22;4904;49.152;11.004;2023-12-20T05:42:11;4.40;99.90
9730;DHT22;4904;49.152;11.004;2023-12-20T05:44:38;4.50;99.90
9730;DHT22;4904;49.152;11.004;2023-12-20T05:47:05;4.50;99.90
9730;DHT22;4904;49.152;11.004;2023-12-20T05:49:34;4.40;99.90
9730;DHT22;4904;49.152;11.004;2023-12-20T05:52:00;4.40;99.90
9730;DHT22;4904;49.152;11.004;2023-12-20T05:54:27;4.40;99.90
9730;DHT22;4904;49.152;11.004;2023-12-20T05:56:54;4.40;99.90
9730;DHT22;4904;49.152;11.004;2023-12-20T05:59:21;4.30;99.90
9730;DHT22;4904;49.152;11.004;2023-12-20T06:01:48;4.40;99.90
9730;DHT22;4904;49.152;11.004;2023-12-20T06:04:15;4.30;99.90
9730;DHT22;4904;49.152;11.004;2023-12-20T06:06:43;4.30;99.90
9730;DHT22;4904;49.152;11.004;2023-12-20T06:09:10;4.30;99.90
9730;DHT22;4904;49.152;11.004;2023-12-20T06:11:37;4.30;99.90
9730;DHT22;4904;49.152;11.004;2023-12-20T06:14:04;4.30;99.90
9730;DHT22;4904;49.152;11.004;2023-12-20T06:16:31;4.20;99.90
9730;DHT22;4904;49.152;11.004;2023-12-20T06:18:58;4.30;99.90
9730;DHT22;4904;49.152;11.004;2023-12-20T06:21:25;4.30;99.90
9730;DHT22;4904;49.152;11.004;2023-12-20T06:23:53;4.30;99.90
9730;DHT22;4904;49.152;11.004;2023-12-20T06:26:20;4.30;99.90
9730;DHT22;4904;49.152;11.004;2023-12-20T06:28:47;4.30;99.90
9730;DHT22;4904;49.152;11.004;2023-12-20T06:31:14;4.30;99.90
9730;DHT22;4904;49.152;11.004;2023-12-20T06:33:41;4.30;99.90
9730;DHT22;4904;49.152;11.004;2023-12-20T06:36:10;4.40;99.90
9730;DHT22;4904;49.152;11.004;2023-12-20T06:38:37;4.40;99.90
9730;DHT22;4904;49.152;11.004;2023-12-20T06:41:05;4.40;99.90
9730;DHT22;4904;49.152;11.004;2023-12-20T06:43:33;4.30;99.90
9730;DHT22;4904;49.152;11.004;2023-12-20T06:46:00;4.40;99.90
9730;DHT22;4904;49.152;11.004;2023-12-20T06:48:28;4.40;99.90
9730;DHT22;4904;49.152;11.004;2023-12-20T06:50:55;4.30;99.90
9730;DHT22;4904;49.152;11.004;2023-12-20T06:53:22;4.40;99.90
9730;DHT22;4904;49.152;11.004;2023-12-20T06:55:48;4.30;99.90
9730;DHT22;4904;49.152;11.004;2023-12-20T06:58:17;4.40;99.90
9730;DHT22;4904;49.152;11.004;2023-12-20T07:00:44;4.40;99.90
9730;DHT22;4904;49.152;11.004;2023-12-20T07:03:10;4.40;99.90
9730;DHT22;4904;49.152;11.004;2023-12-20T07:05:37;4.50;99.90
9730;DHT22;4904;49.152;11.004;2023-12-20T07:08:05;4.40;99.90
9730;DHT22;4904;49.152;11.004;2023-12-20T07:10:32;4.40;99.90
9730;DHT22;4904;49.152;11.004;2023-12-20T07:12:59;4.30;99.90
9730;DHT22;4904;49.152;11.004;2023-12-20T07:15:28;4.30;99.90
9730;DHT22;4904;49.152;11.004;2023-12-20T07:17:56;4.40;99.90
9730;DHT22;4904;49.152;11.004;2023-12-20T07:20:22;4.40;99.90
9730;DHT22;4904;49.152;11.004;2023-12-20T07:22:49;4.40;99.90
9730;DHT22;4904;49.152;11.004;2023-12-20T07:25:16;4.40;99.90
9730;DHT22;4904;49.152;11.004;2023-12-20T07:27:43;4.40;99.90
9730;DHT22;4904;49.152;11.004;2023-12-20T07:30:11;4.40;99.90
9730;DHT22;4904;49.152;11.004;2023-12-20T07:32:39;4.40;99.90
9730;DHT22;4904;49.152;11.004;2023-12-20T07:35:07;4.40;99.90
9730;DHT22;4904;49.152;11.004;2023-12-20T07:37:33;4.50;99.90
9730;DHT22;4904;49.152;11.004;2023-12-20T07:40:00;4.40;99.90
9730;DHT22;4904;49.152;11.004;2023-12-20T07:42:29;4.50;99.90
9730;DHT22;4904;49.152;11.004;2023-12-20T07:44:56;4.50;99.90
9730;DHT22;4904;49.152;11.004;2023-12-20T07:47:23;4.50;99.90
9730;DHT22;4904;49.152;11.004;2023-12-20T07:49:52;4.60;99.90
9730;DHT22;4904;49.152;11.004;2023-12-20T07:52:19;4.60;99.90
9730;DHT22;4904;49.152;11.004;2023-12-20T07:54:47;4.50;99.90
9730;DHT22;4904;49.152;11.004;2023-12-20T07:57:14;4.60;99.90
9730;DHT22;4904;49.152;11.004;2023-12-20T07:59:41;4.70;99.90
9730;DHT22;4904;49.152;11.004;2023-12-20T08:02:09;4.70;99.90
9730;DHT22;4904;49.152;11.004;2023-12-20T08:04:36;4.70;99.90
9730;DHT22;4904;49.152;11.004;2023-12-20T08:07:04;4.70;99.90
9730;DHT22;4904;49.152;11.004;2023-12-20T08:09:31;4.70;99.90
9730;DHT22;4904;49.152;11.004;2023-12-20T08:11:59;4.70;99.90
9730;DHT22;4904;49.152;11.004;2023-12-20T08:14:26;4.70;99.90
9730;DHT22;4904;49.152;11.004;2023-12-20T08:16:53;4.80;99.90
9730;DHT22;4904;49.152;11.004;2023-12-20T08:19:19;4.80;99.90
9730;DHT22;4904;49.152;11.004;2023-12-20T08:21:46;4.80;99.90
9730;DHT22;4904;49.152;11.004;2023-12-20T08:24:15;4.80;99.90
9730;DHT22;4904;49.152;11.004;2023-12-20T08:26:41;4.80;99.90
9730;DHT22;4904;49.152;11.004;2023-12-20T08:29:08;4.80;99.90
9730;DHT22;4904;49.152;11.004;2023-12-20T08:31:35;4.90;99.90
9730;DHT22;4904;49.152;11.004;2023-12-20T08:34:02;4.90;99.90
9730;DHT22;4904;49.152;11.004;2023-12-20T08:36:29;4.90;99.90
9730;DHT22;4904;49.152;11.004;2023-12-20T08:38:57;4.90;99.90
9730;DHT22;4904;49.152;11.004;2023-12-20T08:41:27;4.90;99.90
9730;DHT22;4904;49.152;11.004;2023-12-20T08:43:54;4.90;99.90
9730;DHT22;4904;49.152;11.004;2023-12-20T08:46:21;4.90;99.90
9730;DHT22;4904;49.152;11.004;2023-12-20T08:48:48;4.90;99.90
9730;DHT22;4904;49.152;11.004;2023-12-20T08:51:15;4.90;99.90
9730;DHT22;4904;49.152;11.004;2023-12-20T08:53:42;5.00;99.90
9730;DHT22;4904;49.152;11.004;2023-12-20T08:56:10;5.00;99.90
9730;DHT22;4904;49.152;11.004;2023-12-20T08:58:39;5.00;99.90
9730;DHT22;4904;49.152;11.004;2023-12-20T09:01:06;5.00;99.90
9730;DHT22;4904;49.152;11.004;2023-12-20T09:03:33;5.10;99.90
9730;DHT22;4904;49.152;11.004;2023-12-20T09:06:01;5.10;99.90
9730;DHT22;4904;49.152;11.004;2023-12-20T09:08:28;5.10;99.90
9730;DHT22;4904;49.152;11.004;2023-12-20T09:10:55;5.10;99.90
9730;DHT22;4904;49.152;11.004;2023-12-20T09:13:22;5.00;99.90
9730;DHT22;4904;49.152;11.004;2023-12-20T09:15:55;5.10;99.90
9730;DHT22;4904;49.152;11.004;2023-12-20T09:18:22;5.10;99.90
9730;DHT22;4904;49.152;11.004;2023-12-20T09:20:49;5.00;99.90
9730;DHT22;4904;49.152;11.004;2023-12-20T09:23:15;5.00;99.90
9730;DHT22;4904;49.152;11.004;2023-12-20T09:25:43;5.00;99.90
9730;DHT22;4904;49.152;11.004;2023-12-20T09:28:11;5.00;99.90
9730;DHT22;4904;49.152;11.004;2023-12-20T09:30:38;4.90;99.90
9730;DHT22;4904;49.152;11.004;2023-12-20T09:33:07;4.90;99.90
9730;DHT22;4904;49.152;11.004;2023-12-20T09:35:35;5.00;99.90
9730;DHT22;4904;49.152;11.004;2023-12-20T09:38:03;5.00;99.90
9730;DHT22;4904;49.152;11.004;2023-12-20T09:40:32;5.10;99.90
9730;DHT22;4904;49.152;11.004;2023-12-20T09:43:04;5.10;99.90
9730;DHT22;4904;49.152;11.004;2023-12-20T09:45:31;5.10;99.90
9730;DHT22;4904;49.152;11.004;2023-12-20T09:47:59;5.10;99.90
9730;DHT22;4904;49.152;11.004;2023-12-20T09:50:27;5.20;99.90
9730;DHT22;4904;49.152;11.004;2023-12-20T09:52:58;5.20;99.90
9730;DHT22;4904;49.152;11.004;2023-12-20T09:55:26;5.10;99.90
9730;DHT22;4904;49.152;11.004;2023-12-20T09:57:53;5.00;99.90
9730;DHT22;4904;49.152;11.004;2023-12-20T10:00:20;5.00;99.90
9730;DHT22;4904;49.152;11.004;2023-12-20T10:02:50;4.90;99.90
9730;DHT22;4904;49.152;11.004;2023-12-20T10:05:28;4.90;99.90
9730;DHT22;4904;49.152;11.004;2023-12-20T10:07:55;4.80;99.90
9730;DHT22;4904;49.152;11.004;2023-12-20T10:10:22;4.90;99.90
9730;DHT22;4904;49.152;11.004;2023-12-20T10:13:02;4.90;99.90
9730;DHT22;4904;49.152;11.004;2023-12-20T10:15:29;4.90;99.90
9730;DHT22;4904;49.152;11.004;2023-12-20T10:17:58;5.00;99.90
9730;DHT22;4904;49.152;11.004;2023-12-20T10:20:25;5.10;99.90
9730;DHT22;4904;49.152;11.004;2023-12-20T10:22:55;5.20;99.90
9730;DHT22;4904;49.152;11.004;2023-12-20T10:25:22;5.20;99.90
9730;DHT22;4904;49.152;11.004;2023-12-20T10:27:50;5.20;99.90
9730;DHT22;4904;49.152;11.004;2023-12-20T10:30:17;5.20;99.90
9730;DHT22;4904;49.152;11.004;2023-12-20T10:32:44;5.30;99.90
9730;DHT22;4904;49.152;11.004;2023-12-20T10:35:11;5.40;99.90
9730;DHT22;4904;49.152;11.004;2023-12-20T10:37:38;5.40;99.90
9730;DHT22;4904;49.152;11.004;2023-12-20T10:40:08;5.50;99.90
9730;DHT22;4904;49.152;11.004;2023-12-20T10:42:36;5.50;99.90
9730;DHT22;4904;49.152;11.004;2023-12-20T10:45:05;6.50;99.90
9730;DHT22;4904;49.152;11.004;2023-12-20T10:47:32;5.70;99.90
9730;DHT22;4904;49.152;11.004;2023-12-20T10:50:00;5.80;99.90
9730;DHT22;4904;49.152;11.004;2023-12-20T10:52:29;5.80;99.90
9730;DHT22;4904;49.152;11.004;2023-12-20T10:54:59;5.80;99.90
9730;DHT22;4904;49.152;11.004;2023-12-20T10:57:27;5.90;99.90
9730;DHT22;4904;49.152;11.004;2023-12-20T10:59:56;5.80;99.90
9730;DHT22;4904;49.152;11.004;2023-12-20T11:02:28;5.70;99.90
9730;DHT22;4904;49.152;11.004;2023-12-20T11:05:10;5.70;99.90
9730;DHT22;4904;49.152;11.004;2023-12-20T11:07:43;5.60;99.90
9730;DHT22;4904;49.152;11.004;2023-12-20T11:10:19;5.60;99.90
9730;DHT22;4904;49.152;11.004;2023-12-20T11:12:51;5.50;99.90
9730;DHT22;4904;49.152;11.004;2023-12-20T11:15:20;5.60;99.90
9730;DHT22;4904;49.152;11.004;2023-12-20T11:17:54;5.40;99.90
9730;DHT22;4904;49.152;11.004;2023-12-20T11:20:23;5.40;99.90
9730;DHT22;4904;49.152;11.004;2023-12-20T11:22:54;5.50;99.90
9730;DHT22;4904;49.152;11.004;2023-12-20T11:25:22;5.50;99.90
9730;DHT22;4904;49.152;11.004;2023-12-20T11:28:09;5.50;99.90
9730;DHT22;4904;49.152;11.004;2023-12-20T11:30:56;5.50;99.90
9730;DHT22;4904;49.152;11.004;2023-12-20T11:33:26;5.50;99.90
9730;DHT22;4904;49.152;11.004;2023-12-20T11:35:56;5.50;99.90
9730;DHT22;4904;49.152;11.004;2023-12-20T11:38:24;5.60;99.90
9730;DHT22;4904;49.152;11.004;2023-12-20T11:40:53;5.60;99.90
9730;DHT22;4904;49.152;11.004;2023-12-20T11:43:32;5.50;99.90
9730;DHT22;4904;49.152;11.004;2023-12-20T11:46:08;5.60;99.90
9730;DHT22;4904;49.152;11.004;2023-12-20T11:48:37;5.60;99.90
9730;DHT22;4904;49.152;11.004;2023-12-20T11:51:09;5.50;99.90
9730;DHT22;4904;49.152;11.004;2023-12-20T11:53:36;5.60;99.90
9730;DHT22;4904;49.152;11.004;2023-12-20T11:56:04;5.60;99.90
9730;DHT22;4904;49.152;11.004;2023-12-20T11:58:32;5.60;99.90
9730;DHT22;4904;49.152;11.004;2023-12-20T12:00:59;5.50;99.90
9730;DHT22;4904;49.152;11.004;2023-12-20T12:03:28;5.50;99.90
9730;DHT22;4904;49.152;11.004;2023-12-20T12:05:55;5.50;99.90
9730;DHT22;4904;49.152;11.004;2023-12-20T12:08:22;5.40;99.90
9730;DHT22;4904;49.152;11.004;2023-12-20T12:10:49;5.40;99.90
9730;DHT22;4904;49.152;11.004;2023-12-20T12:13:16;5.40;99.90
9730;DHT22;4904;49.152;11.004;2023-12-20T12:15:45;5.50;99.90
9730;DHT22;4904;49.152;11.004;2023-12-20T12:18:15;5.40;99.90
9730;DHT22;4904;49.152;11.004;2023-12-20T12:20:43;5.50;99.90
9730;DHT22;4904;49.152;11.004;2023-12-20T12:23:10;5.40;99.90
9730;DHT22;4904;49.152;11.004;2023-12-20T12:25:37;5.50;99.90
9730;DHT22;4904;49.152;11.004;2023-12-20T12:28:05;5.40;99.90
9730;DHT22;4904;49.152;11.004;2023-12-20T12:30:32;5.40;99.90
9730;DHT22;4904;49.152;11.004;2023-12-20T12:33:01;5.40;99.90
9730;DHT22;4904;49.152;11.004;2023-12-20T12:35:28;5.50;99.90
9730;DHT22;4904;49.152;11.004;2023-12-20T12:37:54;5.50;99.90
9730;DHT22;4904;49.152;11.004;2023-12-20T12:40:21;5.40;99.90
9730;DHT22;4904;49.152;11.004;2023-12-20T12:42:48;5.40;99.90
9730;DHT22;4904;49.152;11.004;2023-12-20T12:45:15;5.40;99.90
9730;DHT22;4904;49.152;11.004;2023-12-20T12:47:42;5.40;99.90
9730;DHT22;4904;49.152;11.004;2023-12-20T12:50:10;5.40;99.90
9730;DHT22;4904;49.152;11.004;2023-12-20T12:52:37;5.40;99.90
9730;DHT22;4904;49.152;11.004;2023-12-20T12:55:05;5.40;99.90
9730;DHT22;4904;49.152;11.004;2023-12-20T12:57:32;5.40;99.90
9730;DHT22;4904;49.152;11.004;2023-12-20T12:59:59;5.40;99.90
9730;DHT22;4904;49.152;11.004;2023-12-20T13:02:26;5.40;99.90
9730;DHT22;4904;49.152;11.004;2023-12-20T13:04:53;5.30;99.90
9730;DHT22;4904;49.152;11.004;2023-12-20T13:07:21;5.40;99.90
9730;DHT22;4904;49.152;11.004;2023-12-20T13:09:48;5.40;99.90
9730;DHT22;4904;49.152;11.004;2023-12-20T13:12:15;5.40;99.90
9730;DHT22;4904;49.152;11.004;2023-12-20T13:14:42;5.30;99.90
9730;DHT22;4904;49.152;11.004;2023-12-20T13:17:08;5.40;99.90
9730;DHT22;4904;49.152;11.004;2023-12-20T13:19:37;5.40;99.90
9730;DHT22;4904;49.152;11.004;2023-12-20T13:22:04;5.40;99.90
9730;DHT22;4904;49.152;11.004;2023-12-20T13:24:32;5.30;99.90
9730;DHT22;4904;49.152;11.004;2023-12-20T13:26:59;5.30;99.90
9730;DHT22;4904;49.152;11.004;2023-12-20T13:29:26;5.30;99.90
9730;DHT22;4904;49.152;11.004;2023-12-20T13:31:53;5.40;99.90
9730;DHT22;4904;49.152;11.004;2023-12-20T13:34:19;5.40;99.90
9730;DHT22;4904;49.152;11.004;2023-12-20T13:36:46;5.40;99.90
9730;DHT22;4904;49.152;11.004;2023-12-20T13:39:15;5.40;99.90
9730;DHT22;4904;49.152;11.004;2023-12-20T13:41:44;5.40;99.90
9730;DHT22;4904;49.152;11.004;2023-12-20T13:44:12;5.40;99.90
9730;DHT22;4904;49.152;11.004;2023-12-20T13:46:39;5.40;99.90
9730;DHT22;4904;49.152;11.004;2023-12-20T13:49:06;5.40;99.90
9730;DHT22;4904;49.152;11.004;2023-12-20T13:51:33;5.30;99.90
9730;DHT22;4904;49.152;11.004;2023-12-20T13:54:00;5.40;99.90
9730;DHT22;4904;49.152;11.004;2023-12-20T13:56:27;5.30;99.90
9730;DHT22;4904;49.152;11.004;2023-12-20T13:58:55;5.30;99.90
9730;DHT22;4904;49.152;11.004;2023-12-20T14:01:23;5.30;99.90
9730;DHT22;4904;49.152;11.004;2023-12-20T14:03:50;5.30;99.90
9730;DHT22;4904;49.152;11.004;2023-12-20T14:06:17;5.30;99.90
9730;DHT22;4904;49.152;11.004;2023-12-20T14:08:44;5.30;99.90
9730;DHT22;4904;49.152;11.004;2023-12-20T14:11:11;5.40;99.90
9730;DHT22;4904;49.152;11.004;2023-12-20T14:13:38;5.50;99.90
9730;DHT22;4904;49.152;11.004;2023-12-20T14:16:06;5.40;99.90
9730;DHT22;4904;49.152;11.004;2023-12-20T14:18:33;5.50;99.90
9730;DHT22;4904;49.152;11.004;2023-12-20T14:21:00;5.60;99.90
9730;DHT22;4904;49.152;11.004;2023-12-20T14:23:27;5.60;99.90
9730;DHT22;4904;49.152;11.004;2023-12-20T14:25:54;5.50;99.90
9730;DHT22;4904;49.152;11.004;2023-12-20T14:28:21;5.50;99.90
9730;DHT22;4904;49.152;11.004;2023-12-20T14:30:48;5.50;99.90
9730;DHT22;4904;49.152;11.004;2023-12-20T14:33:17;5.40;99.90
9730;DHT22;4904;49.152;11.004;2023-12-20T14:35:46;5.40;99.90
9730;DHT22;4904;49.152;11.004;2023-12-20T14:38:13;5.30;99.90
9730;DHT22;4904;49.152;11.004;2023-12-20T14:40:40;5.30;99.90
9730;DHT22;4904;49.152;11.004;2023-12-20T14:43:07;5.20;99.90
9730;DHT22;4904;49.152;11.004;2023-12-20T14:45:34;5.20;99.90
9730;DHT22;4904;49.152;11.004;2023-12-20T14:48:01;5.20;99.90
9730;DHT22;4904;49.152;11.004;2023-12-20T14:50:28;5.10;99.90
9730;DHT22;4904;49.152;11.004;2023-12-20T14:52:55;5.00;99.90
9730;DHT22;4904;49.152;11.004;2023-12-20T14:55:22;5.10;99.90
9730;DHT22;4904;49.152;11.004;2023-12-20T14:57:52;5.10;99.90
9730;DHT22;4904;49.152;11.004;2023-12-20T15:00:19;5.10;99.90
9730;DHT22;4904;49.152;11.004;2023-12-20T15:02:46;5.20;99.90
9730;DHT22;4904;49.152;11.004;2023-12-20T15:05:13;5.10;99.90
9730;DHT22;4904;49.152;11.004;2023-12-20T15:07:42;5.10;99.90
9730;DHT22;4904;49.152;11.004;2023-12-20T15:10:09;5.00;99.90
9730;DHT22;4904;49.152;11.004;2023-12-20T15:12:36;4.90;99.90
9730;DHT22;4904;49.152;11.004;2023-12-20T15:15:03;4.90;99.90
9730;DHT22;4904;49.152;11.004;2023-12-20T15:17:30;4.90;99.90
9730;DHT22;4904;49.152;11.004;2023-12-20T15:19:57;4.90;99.90
9730;DHT22;4904;49.152;11.004;2023-12-20T15:22:24;4.90;99.90
9730;DHT22;4904;49.152;11.004;2023-12-20T15:24:53;5.00;99.90
9730;DHT22;4904;49.152;11.004;2023-12-20T15:27:20;5.00;99.90
9730;DHT22;4904;49.152;11.004;2023-12-20T15:29:47;5.00;99.90
9730;DHT22;4904;49.152;11.004;2023-12-20T15:32:15;4.90;99.90
9730;DHT22;4904;49.152;11.004;2023-12-20T15:34:44;5.00;99.90
9730;DHT22;4904;49.152;11.004;2023-12-20T15:37:11;5.00;99.90
9730;DHT22;4904;49.152;11.004;2023-12-20T15:39:38;4.90;99.90
9730;DHT22;4904;49.152;11.004;2023-12-20T15:42:06;5.00;99.90
9730;DHT22;4904;49.152;11.004;2023-12-20T15:44:33;4.90;99.90
9730;DHT22;4904;49.152;11.004;2023-12-20T15:47:00;4.90;99.90
9730;DHT22;4904;49.152;11.004;2023-12-20T15:49:27;4.90;99.90
9730;DHT22;4904;49.152;11.004;2023-12-20T15:51:54;5.60;99.90
9730;DHT22;4904;49.152;11.004;2023-12-20T15:54:21;4.90;99.90
9730;DHT22;4904;49.152;11.004;2023-12-20T15:56:48;4.90;99.90
9730;DHT22;4904;49.152;11.004;2023-12-20T15:59:16;4.80;99.90
9730;DHT22;4904;49.152;11.004;2023-12-20T16:01:43;4.90;99.90
9730;DHT22;4904;49.152;11.004;2023-12-20T16:04:10;4.90;99.90